Mathilde Maersk — OUJS2 — position and weather

sailwx.info

Track history (hours):
 
Tides and Currents Weather Stations Pressure Air Temp Water Temp Dewpoint Dewpoint Depression Visibility Wind Speed Wind Dir Waves Ship Positions

Mathilde Maersk

Last reported at 2016-Sep-13 02:34 UTC. Time now 2016-Sep-25 17:31 UTC.
Position N 37°57' E 015°32'.
Warning: this ship's position is 12 days out of date.

Length 367 m; draft 12.2 m.

Type: Ship (hazmat cat B). MMSI: 220597990.

Date/timePositionNaut miles runAvg speedWind from/ knotsBaromVisibWave heightAir tempDewpointWater temp
2016-Sep-13 02:34N 37°57' E 015°32'3411.4
2016-Sep-12 23:33N 38°27' E 015°54'1 0.5
2016-Sep-12 21:32N 38°28' E 015°55'0 0.0
2016-Sep-12 19:32N 38°28' E 015°55'0 0.0
2016-Sep-12 17:26N 38°28' E 015°55'0 0.0
2016-Sep-12 14:32N 38°28' E 015°55'0 0.0
2016-Sep-12 13:29N 38°28' E 015°55'0 0.0
2016-Sep-12 12:26N 38°28' E 015°55'0 0.0
2016-Sep-12 11:23N 38°28' E 015°55'0 0.0
2016-Sep-12 10:17N 38°28' E 015°55'0 0.0
2016-Sep-12 07:23N 38°28' E 015°55'0 0.0
2016-Sep-12 06:29N 38°28' E 015°55'3 1.1
2016-Sep-12 03:34N 38°27' E 015°51'12 5.9
2016-Sep-12 01:34N 38°17' E 015°42'2512.6
2016-Sep-11 23:34N 37°52' E 015°49'3616.8
2016-Sep-11 21:26N 38°09' E 016°29'36615.9
2016-Sep-10 22:22N 43°59' E 014°09'1721.5
2016-Sep-10 21:33N 44°13' E 013°54'2020.2
2016-Sep-10 20:33N 44°31' E 013°42'2121.3
2016-Sep-10 19:33N 44°47' E 014°03'34 1.0
2016-Sep-09 10:31N 45°17' E 014°23'3012.9
2016-Sep-09 08:12N 44°49' E 014°08'1015.1
2016-Sep-09 07:33N 44°43' E 013°57'1515.2
2016-Sep-09 06:33N 44°42' E 013°36'1514.6
2016-Sep-09 05:33N 44°52' E 013°21'1616.1
2016-Sep-09 04:33N 45°05' E 013°08'1616.1
2016-Sep-09 03:33N 45°21' E 013°02'1515.1
2016-Sep-09 02:33N 45°32' E 013°16'1717.0
2016-Sep-09 01:33N 45°39' E 013°38'5 5.2
2016-Sep-09 00:31N 45°38' E 013°46'0 0.0
2016-Sep-08 23:31N 45°38' E 013°46'0 0.0
2016-Sep-08 22:31N 45°38' E 013°46'0 0.0
2016-Sep-08 21:31N 45°38' E 013°46'0 0.0
2016-Sep-08 20:28N 45°38' E 013°46'0 0.0
2016-Sep-08 19:31N 45°38' E 013°46'0 0.0
2016-Sep-08 18:28N 45°38' E 013°46'0 0.0
2016-Sep-08 17:31N 45°38' E 013°46'0 0.0
2016-Sep-08 16:28N 45°38' E 013°46'0 0.0
2016-Sep-08 15:31N 45°38' E 013°46'0 0.0
2016-Sep-08 14:28N 45°38' E 013°46'0 0.0
2016-Sep-08 13:31N 45°38' E 013°46'0 0.0
2016-Sep-08 12:25N 45°38' E 013°46'0 0.0
2016-Sep-08 11:28N 45°38' E 013°46'0 0.0
2016-Sep-08 10:28N 45°38' E 013°46'0 0.0
2016-Sep-08 09:31N 45°38' E 013°46'0 0.0
2016-Sep-08 08:31N 45°38' E 013°46'0 0.0
2016-Sep-08 07:31N 45°38' E 013°46'0 0.0
2016-Sep-08 06:28N 45°38' E 013°46'0 0.0
2016-Sep-08 04:31N 45°38' E 013°46'0 0.0
2016-Sep-08 03:31N 45°38' E 013°46'0 0.0
2016-Sep-08 02:28N 45°38' E 013°46'0 0.0
2016-Sep-08 01:31N 45°38' E 013°46'0 0.0
2016-Sep-08 00:28N 45°38' E 013°46'0 0.0
2016-Sep-07 23:31N 45°38' E 013°46'0 0.0
2016-Sep-07 22:28N 45°38' E 013°46'0 0.0
2016-Sep-07 21:31N 45°38' E 013°46'0 0.0
2016-Sep-07 20:31N 45°38' E 013°46'0 0.0
2016-Sep-07 19:31N 45°38' E 013°46'0 0.0
2016-Sep-07 18:31N 45°38' E 013°46'0 0.0
2016-Sep-07 17:31N 45°38' E 013°46'0 0.0
2016-Sep-07 16:31N 45°38' E 013°46'0 0.0
2016-Sep-07 15:31N 45°38' E 013°46'0 0.0
2016-Sep-07 14:31N 45°38' E 013°46'0 0.0
2016-Sep-07 13:31N 45°38' E 013°46'0 0.0
2016-Sep-07 12:28N 45°38' E 013°46'0 0.0
2016-Sep-07 11:31N 45°38' E 013°46'0 0.0
2016-Sep-07 10:28N 45°38' E 013°46'0 0.0
2016-Sep-07 09:28N 45°38' E 013°46'0 0.0
2016-Sep-07 08:28N 45°38' E 013°46'0 0.0
2016-Sep-07 07:31N 45°38' E 013°46'0 0.0
2016-Sep-07 06:31N 45°38' E 013°46'0 0.0
2016-Sep-07 04:33N 45°38' E 013°46'3 2.8
2016-Sep-07 03:33N 45°39' E 013°43'1 0.5
2016-Sep-07 02:31N 45°40' E 013°42'0 0.1
2016-Sep-07 01:31N 45°40' E 013°42'0 0.1
2016-Sep-07 00:33N 45°40' E 013°42'0 0.1
2016-Sep-06 23:34N 45°40' E 013°42'0 0.0
2016-Sep-06 22:33N 45°40' E 013°42'0 0.0
2016-Sep-06 21:33N 45°40' E 013°42'0 0.0
2016-Sep-06 20:34N 45°40' E 013°42'3 3.3
2016-Sep-06 19:33N 45°37' E 013°39'5 4.9
2016-Sep-06 18:31N 45°33' E 013°44'0 0.1
2016-Sep-06 17:31N 45°33' E 013°44'0 0.0
2016-Sep-06 16:25N 45°33' E 013°44'0 0.0
2016-Sep-06 15:31N 45°33' E 013°44'0 0.0
2016-Sep-06 14:28N 45°33' E 013°44'0 0.0
2016-Sep-06 13:31N 45°33' E 013°44'0 0.0
2016-Sep-06 12:31N 45°33' E 013°44'0 0.0
2016-Sep-06 11:31N 45°33' E 013°44'0 0.0
2016-Sep-06 10:28N 45°33' E 013°44'0 0.0
2016-Sep-06 09:31N 45°33' E 013°44'0 0.0
2016-Sep-06 08:31N 45°33' E 013°44'0 0.0
2016-Sep-06 07:16N 45°33' E 013°44'0 0.0
2016-Sep-06 06:31N 45°33' E 013°44'0 0.0
2016-Sep-06 04:25N 45°33' E 013°44'0 0.0
2016-Sep-06 03:31N 45°33' E 013°44'0 0.0
2016-Sep-06 02:31N 45°33' E 013°44'0 0.0
2016-Sep-06 01:31N 45°33' E 013°44'0 0.0
2016-Sep-06 00:31N 45°33' E 013°44'0 0.0
2016-Sep-05 23:31N 45°33' E 013°44'0 0.0
2016-Sep-05 22:22N 45°33' E 013°44'0 0.0
2016-Sep-05 21:31N 45°33' E 013°44'0 0.0
2016-Sep-05 20:31N 45°33' E 013°44'0 0.0
2016-Sep-05 19:31N 45°33' E 013°44'0 0.0
2016-Sep-05 18:31N 45°33' E 013°44'0 0.0
2016-Sep-05 17:31N 45°33' E 013°44'0 0.0
2016-Sep-05 16:28N 45°33' E 013°44'0 0.0
2016-Sep-05 15:28N 45°33' E 013°44'0 0.0
2016-Sep-05 14:31N 45°33' E 013°44'0 0.0
2016-Sep-05 13:28N 45°33' E 013°44'0 0.0
2016-Sep-05 12:31N 45°33' E 013°44'0 0.0
2016-Sep-05 11:31N 45°33' E 013°44'0 0.0
2016-Sep-05 10:28N 45°33' E 013°44'0 0.0
2016-Sep-05 09:31N 45°33' E 013°44'0 0.0
2016-Sep-05 08:31N 45°33' E 013°44'0 0.0
2016-Sep-05 07:31N 45°33' E 013°44'0 0.0
2016-Sep-05 06:31N 45°33' E 013°44'0 0.0
2016-Sep-05 04:33N 45°33' E 013°44'2 1.9
2016-Sep-05 03:33N 45°34' E 013°41'4 3.6
2016-Sep-05 02:33N 45°34' E 013°36'1212.5
2016-Sep-05 01:34N 45°29' E 013°20'1413.6
2016-Sep-05 00:33N 45°17' E 013°13'1717.3
2016-Sep-04 23:33N 45°00' E 013°21'1717.3
2016-Sep-04 22:33N 44°45' E 013°33'1818.0
2016-Sep-04 21:33N 44°30' E 013°46'1818.2
2016-Sep-04 20:34N 44°15' E 014°00'1918.5
2016-Sep-04 19:34N 43°59' E 014°14'1818.2
2016-Sep-04 18:34N 43°45' E 014°30'1818.1
2016-Sep-04 17:33N 43°31' E 014°45'1918.9
2016-Sep-04 16:33N 43°16' E 015°02'1919.0
2016-Sep-04 15:33N 43°02' E 015°19'7915.6
2016-Sep-04 10:30N 42°04' E 016°32'  
Track history (hours):
 
Tides and Currents Weather Stations Pressure Air Temp Water Temp Dewpoint Dewpoint Depression Visibility Wind Speed Wind Dir Waves Ship Positions

Mathilde Maersk

Last reported at 2016-Sep-13 02:34 UTC. Time now 2016-Sep-25 17:31 UTC.
Position N 37°57' E 015°32'.
Warning: this ship's position is 12 days out of date.

Length 367 m; draft 12.2 m.

Type: Ship (hazmat cat B). MMSI: 220597990.

Date/timePositionNaut miles runAvg speedWind from/ knotsBaromVisibWave heightAir tempDewpointWater temp
2016-Sep-13 02:34N 37°57' E 015°32'3411.4
2016-Sep-12 23:33N 38°27' E 015°54'1 0.5
2016-Sep-12 21:32N 38°28' E 015°55'0 0.0
2016-Sep-12 19:32N 38°28' E 015°55'0 0.0
2016-Sep-12 17:26N 38°28' E 015°55'0 0.0
2016-Sep-12 14:32N 38°28' E 015°55'0 0.0
2016-Sep-12 13:29N 38°28' E 015°55'0 0.0
2016-Sep-12 12:26N 38°28' E 015°55'0 0.0
2016-Sep-12 11:23N 38°28' E 015°55'0 0.0
2016-Sep-12 10:17N 38°28' E 015°55'0 0.0
2016-Sep-12 07:23N 38°28' E 015°55'0 0.0
2016-Sep-12 06:29N 38°28' E 015°55'3 1.1
2016-Sep-12 03:34N 38°27' E 015°51'12 5.9
2016-Sep-12 01:34N 38°17' E 015°42'2512.6
2016-Sep-11 23:34N 37°52' E 015°49'3616.8
2016-Sep-11 21:26N 38°09' E 016°29'36615.9
2016-Sep-10 22:22N 43°59' E 014°09'1721.5
2016-Sep-10 21:33N 44°13' E 013°54'2020.2
2016-Sep-10 20:33N 44°31' E 013°42'2121.3
2016-Sep-10 19:33N 44°47' E 014°03'34 1.0
2016-Sep-09 10:31N 45°17' E 014°23'3012.9
2016-Sep-09 08:12N 44°49' E 014°08'1015.1
2016-Sep-09 07:33N 44°43' E 013°57'1515.2
2016-Sep-09 06:33N 44°42' E 013°36'1514.6
2016-Sep-09 05:33N 44°52' E 013°21'1616.1
2016-Sep-09 04:33N 45°05' E 013°08'1616.1
2016-Sep-09 03:33N 45°21' E 013°02'1515.1
2016-Sep-09 02:33N 45°32' E 013°16'1717.0
2016-Sep-09 01:33N 45°39' E 013°38'5 5.2
2016-Sep-09 00:31N 45°38' E 013°46'0 0.0
2016-Sep-08 23:31N 45°38' E 013°46'0 0.0
2016-Sep-08 22:31N 45°38' E 013°46'0 0.0
2016-Sep-08 21:31N 45°38' E 013°46'0 0.0
2016-Sep-08 20:28N 45°38' E 013°46'0 0.0
2016-Sep-08 19:31N 45°38' E 013°46'0 0.0
2016-Sep-08 18:28N 45°38' E 013°46'0 0.0
2016-Sep-08 17:31N 45°38' E 013°46'0 0.0
2016-Sep-08 16:28N 45°38' E 013°46'0 0.0
2016-Sep-08 15:31N 45°38' E 013°46'0 0.0
2016-Sep-08 14:28N 45°38' E 013°46'0 0.0
2016-Sep-08 13:31N 45°38' E 013°46'0 0.0
2016-Sep-08 12:25N 45°38' E 013°46'0 0.0
2016-Sep-08 11:28N 45°38' E 013°46'0 0.0
2016-Sep-08 10:28N 45°38' E 013°46'0 0.0
2016-Sep-08 09:31N 45°38' E 013°46'0 0.0
2016-Sep-08 08:31N 45°38' E 013°46'0 0.0
2016-Sep-08 07:31N 45°38' E 013°46'0 0.0
2016-Sep-08 06:28N 45°38' E 013°46'0 0.0
2016-Sep-08 04:31N 45°38' E 013°46'0 0.0
2016-Sep-08 03:31N 45°38' E 013°46'0 0.0
2016-Sep-08 02:28N 45°38' E 013°46'0 0.0
2016-Sep-08 01:31N 45°38' E 013°46'0 0.0
2016-Sep-08 00:28N 45°38' E 013°46'0 0.0
2016-Sep-07 23:31N 45°38' E 013°46'0 0.0
2016-Sep-07 22:28N 45°38' E 013°46'0 0.0
2016-Sep-07 21:31N 45°38' E 013°46'0 0.0
2016-Sep-07 20:31N 45°38' E 013°46'0 0.0
2016-Sep-07 19:31N 45°38' E 013°46'0 0.0
2016-Sep-07 18:31N 45°38' E 013°46'0 0.0
2016-Sep-07 17:31N 45°38' E 013°46'0 0.0
2016-Sep-07 16:31N 45°38' E 013°46'0 0.0
2016-Sep-07 15:31N 45°38' E 013°46'0 0.0
2016-Sep-07 14:31N 45°38' E 013°46'0 0.0
2016-Sep-07 13:31N 45°38' E 013°46'0 0.0
2016-Sep-07 12:28N 45°38' E 013°46'0 0.0
2016-Sep-07 11:31N 45°38' E 013°46'0 0.0
2016-Sep-07 10:28N 45°38' E 013°46'0 0.0
2016-Sep-07 09:28N 45°38' E 013°46'0 0.0
2016-Sep-07 08:28N 45°38' E 013°46'0 0.0
2016-Sep-07 07:31N 45°38' E 013°46'0 0.0
2016-Sep-07 06:31N 45°38' E 013°46'0 0.0
2016-Sep-07 04:33N 45°38' E 013°46'3 2.8
2016-Sep-07 03:33N 45°39' E 013°43'1 0.5
2016-Sep-07 02:31N 45°40' E 013°42'0 0.1
2016-Sep-07 01:31N 45°40' E 013°42'0 0.1
2016-Sep-07 00:33N 45°40' E 013°42'0 0.1
2016-Sep-06 23:34N 45°40' E 013°42'0 0.0
2016-Sep-06 22:33N 45°40' E 013°42'0 0.0
2016-Sep-06 21:33N 45°40' E 013°42'0 0.0
2016-Sep-06 20:34N 45°40' E 013°42'3 3.3
2016-Sep-06 19:33N 45°37' E 013°39'5 4.9
2016-Sep-06 18:31N 45°33' E 013°44'0 0.1
2016-Sep-06 17:31N 45°33' E 013°44'0 0.0
2016-Sep-06 16:25N 45°33' E 013°44'0 0.0
2016-Sep-06 15:31N 45°33' E 013°44'0 0.0
2016-Sep-06 14:28N 45°33' E 013°44'0 0.0
2016-Sep-06 13:31N 45°33' E 013°44'0 0.0
2016-Sep-06 12:31N 45°33' E 013°44'0 0.0
2016-Sep-06 11:31N 45°33' E 013°44'0 0.0
2016-Sep-06 10:28N 45°33' E 013°44'0 0.0
2016-Sep-06 09:31N 45°33' E 013°44'0 0.0
2016-Sep-06 08:31N 45°33' E 013°44'0 0.0
2016-Sep-06 07:16N 45°33' E 013°44'0 0.0
2016-Sep-06 06:31N 45°33' E 013°44'0 0.0
2016-Sep-06 04:25N 45°33' E 013°44'0 0.0
2016-Sep-06 03:31N 45°33' E 013°44'0 0.0
2016-Sep-06 02:31N 45°33' E 013°44'0 0.0
2016-Sep-06 01:31N 45°33' E 013°44'0 0.0
2016-Sep-06 00:31N 45°33' E 013°44'0 0.0
2016-Sep-05 23:31N 45°33' E 013°44'0 0.0
2016-Sep-05 22:22N 45°33' E 013°44'0 0.0
2016-Sep-05 21:31N 45°33' E 013°44'0 0.0
2016-Sep-05 20:31N 45°33' E 013°44'0 0.0
2016-Sep-05 19:31N 45°33' E 013°44'0 0.0
2016-Sep-05 18:31N 45°33' E 013°44'0 0.0
2016-Sep-05 17:31N 45°33' E 013°44'0 0.0
2016-Sep-05 16:28N 45°33' E 013°44'0 0.0
2016-Sep-05 15:28N 45°33' E 013°44'0 0.0
2016-Sep-05 14:31N 45°33' E 013°44'0 0.0
2016-Sep-05 13:28N 45°33' E 013°44'0 0.0
2016-Sep-05 12:31N 45°33' E 013°44'0 0.0
2016-Sep-05 11:31N 45°33' E 013°44'0 0.0
2016-Sep-05 10:28N 45°33' E 013°44'0 0.0
2016-Sep-05 09:31N 45°33' E 013°44'0 0.0
2016-Sep-05 08:31N 45°33' E 013°44'0 0.0
2016-Sep-05 07:31N 45°33' E 013°44'0 0.0
2016-Sep-05 06:31N 45°33' E 013°44'0 0.0
2016-Sep-05 04:33N 45°33' E 013°44'2 1.9
2016-Sep-05 03:33N 45°34' E 013°41'4 3.6
2016-Sep-05 02:33N 45°34' E 013°36'1212.5
2016-Sep-05 01:34N 45°29' E 013°20'1413.6
2016-Sep-05 00:33N 45°17' E 013°13'1717.3
2016-Sep-04 23:33N 45°00' E 013°21'1717.3
2016-Sep-04 22:33N 44°45' E 013°33'1818.0
2016-Sep-04 21:33N 44°30' E 013°46'1818.2
2016-Sep-04 20:34N 44°15' E 014°00'1918.5
2016-Sep-04 19:34N 43°59' E 014°14'1818.2
2016-Sep-04 18:34N 43°45' E 014°30'1818.1
2016-Sep-04 17:33N 43°31' E 014°45'1918.9
2016-Sep-04 16:33N 43°16' E 015°02'1919.0
2016-Sep-04 15:33N 43°02' E 015°19'7915.6
2016-Sep-04 10:30N 42°04' E 016°32'  

Dump ship's entire track history